24J

Suwannee County Airport

Live Oak, Florida, USA
METAR K24J 181315Z AUTO 00000KT 6SM BR CLR 03/03 A3014 RMK A01
Observed Flight Rules
Dec-18 @ 13:15 UTC (6 minutes ago) Visual Flight Rules
Visibility Clouds Conditions
6 miles
  • Clear skies
  • Mist
Temperatures Readings
Current 3°C / 37°F
Dewpoint 3°C / 37°F
Humidity 100%
Altimeter 30.14" Hg
Pressure 1021 hPa
Elevation 32
METAR K24J 181315Z AUTO 00000KT 6SM BR CLR 03/03 A3014 RMK A01
Observed Flight Rules
Dec-18 @ 13:15 UTC
(6 minutes ago)
VFR
Clouds
  • Clear skies
Conditions
  • Mist
Temperature Dewpoint
3°C / 37°F 3°C / 37°F
Humidity Altimeter Pressure
100% 30.14" Hg 1021 hPa